Ana Sayfa
METAR-TAF:

METAR-TAF

Havaalanları :

Sivas Nuri Demirağ Havalimanı

Sivas, Türkiye

Enlem: 39-45N, Boylam: 037-01E, yükseklik: 1285 m

Güncel hava durumu gözlemi

Rapor saat 16:50 UTC de 1 saat ve 5 dakika önce yapıldı.
Rüzgar kuzeydan 9 kt
Sıcaklık 18°C
Nem 64%
Basınç 1016 hPa
Görüş mesafesi 10 km veya daha fazla
4000 ft yükseklikte az bulutlu

METAR: LTAR 181650Z 01009KT 9999 FEW040 18/11 Q1016

Saat: 20:55 (17:55 UTC)

Tahmin

Rapor saat 16:40 UTC de 1 saat ve 15 dakika önce yapıldı.
Ayın 18'si saat 18 UTC'den ayın 19'si saat 03 UTC'ye kadar geçerli Tahmin
Rüzgar kuzey/kuzeybatıdan 15 kt
Görüş mesafesi 10 km veya daha fazla
1500 m altında bulut yok ve kümülonimbus yok
Dönüşüyor
ayın 18'si saat 20 UTC'den ayın 18'si saat 23 UTC'ye kadar
3500 ft yükseklikte parçalı bulutlu

TAF: LTAR 181640Z 1818/1903 33015KT CAVOK BECMG 1820/1823 SCT035

4.000'den fazla havaalanı için hava durumu gözlemleri ve tahminleri (METAR ve TAF raporları).

Kullanılabilir istasyonlar harita üzerinde sarı ve kırmızı noktalarla gösterilir.

İstasyonun adını görmek için fareyi noktanın üzerinde gezdirin.

Sonrasında hava gözlem ve tahminlerini görmek için tıklayın.

Haritayı değiştirmek için: yaklaştırmak için siyah artı işaretli yeşil düğmeye ve uzaklaştırmak için de eksi işaretli düğmeye hızla tıklayın; bitişik haritalar için yeşil okları kullanın.


METAR-TAF: